sensor_id;sensor_type;location;lat;lon;timestamp;P1;durP1;ratioP1;P2;durP2;ratioP2
6135;SDS011;24008;42.664;23.372;2022-07-23T00:02:01;10.85;;;8.23;;
6135;SDS011;24008;42.664;23.372;2022-07-23T00:04:28;11.73;;;8.38;;
6135;SDS011;24008;42.664;23.372;2022-07-23T00:06:55;11.02;;;8.65;;
6135;SDS011;24008;42.664;23.372;2022-07-23T00:09:21;16.52;;;9.27;;
6135;SDS011;24008;42.664;23.372;2022-07-23T00:11:48;12.52;;;8.23;;
6135;SDS011;24008;42.664;23.372;2022-07-23T00:14:15;13.68;;;8.18;;
6135;SDS011;24008;42.664;23.372;2022-07-23T00:16:44;11.70;;;8.82;;
6135;SDS011;24008;42.664;23.372;2022-07-23T00:19:11;10.65;;;8.75;;
6135;SDS011;24008;42.664;23.372;2022-07-23T00:21:37;11.90;;;8.48;;
6135;SDS011;24008;42.664;23.372;2022-07-23T00:24:04;11.80;;;8.50;;
6135;SDS011;24008;42.664;23.372;2022-07-23T00:26:32;12.43;;;8.48;;
6135;SDS011;24008;42.664;23.372;2022-07-23T00:28:58;11.20;;;8.75;;
6135;SDS011;24008;42.664;23.372;2022-07-23T00:31:25;14.10;;;8.60;;
6135;SDS011;24008;42.664;23.372;2022-07-23T00:33:54;13.07;;;8.15;;
6135;SDS011;24008;42.664;23.372;2022-07-23T00:36:22;13.30;;;8.25;;
6135;SDS011;24008;42.664;23.372;2022-07-23T00:38:49;11.10;;;8.77;;
6135;SDS011;24008;42.664;23.372;2022-07-23T00:41:16;14.60;;;8.30;;
6135;SDS011;24008;42.664;23.372;2022-07-23T00:43:43;9.90;;;8.07;;
6135;SDS011;24008;42.664;23.372;2022-07-23T00:46:10;11.80;;;8.53;;
6135;SDS011;24008;42.664;23.372;2022-07-23T00:48:37;12.88;;;9.40;;
6135;SDS011;24008;42.664;23.372;2022-07-23T00:51:05;11.00;;;8.77;;
6135;SDS011;24008;42.664;23.372;2022-07-23T00:53:32;11.07;;;9.07;;
6135;SDS011;24008;42.664;23.372;2022-07-23T00:55:59;10.75;;;9.20;;
6135;SDS011;24008;42.664;23.372;2022-07-23T00:58:26;13.13;;;9.38;;
6135;SDS011;24008;42.664;23.372;2022-07-23T01:00:53;13.07;;;8.87;;
6135;SDS011;24008;42.664;23.372;2022-07-23T01:03:21;12.80;;;9.65;;
6135;SDS011;24008;42.664;23.372;2022-07-23T01:05:48;13.93;;;9.37;;
6135;SDS011;24008;42.664;23.372;2022-07-23T01:08:17;10.47;;;8.67;;
6135;SDS011;24008;42.664;23.372;2022-07-23T01:10:44;13.00;;;9.25;;
6135;SDS011;24008;42.664;23.372;2022-07-23T01:13:11;15.30;;;8.20;;
6135;SDS011;24008;42.664;23.372;2022-07-23T01:15:39;16.40;;;9.67;;
6135;SDS011;24008;42.664;23.372;2022-07-23T01:18:07;9.50;;;8.53;;
6135;SDS011;24008;42.664;23.372;2022-07-23T01:20:34;12.87;;;8.73;;
6135;SDS011;24008;42.664;23.372;2022-07-23T01:23:02;11.63;;;8.60;;
6135;SDS011;24008;42.664;23.372;2022-07-23T01:25:29;14.32;;;9.25;;
6135;SDS011;24008;42.664;23.372;2022-07-23T01:27:56;10.40;;;8.88;;
6135;SDS011;24008;42.664;23.372;2022-07-23T01:30:23;11.67;;;8.90;;
6135;SDS011;24008;42.664;23.372;2022-07-23T01:32:50;13.33;;;8.57;;
6135;SDS011;24008;42.664;23.372;2022-07-23T01:35:17;9.50;;;8.10;;
6135;SDS011;24008;42.664;23.372;2022-07-23T01:37:44;10.60;;;8.10;;
6135;SDS011;24008;42.664;23.372;2022-07-23T01:40:12;12.20;;;9.50;;
6135;SDS011;24008;42.664;23.372;2022-07-23T01:42:39;11.13;;;7.82;;
6135;SDS011;24008;42.664;23.372;2022-07-23T01:45:07;12.27;;;8.32;;
6135;SDS011;24008;42.664;23.372;2022-07-23T01:47:34;9.85;;;8.52;;
6135;SDS011;24008;42.664;23.372;2022-07-23T01:50:01;14.18;;;8.68;;
6135;SDS011;24008;42.664;23.372;2022-07-23T01:52:28;10.82;;;8.55;;
6135;SDS011;24008;42.664;23.372;2022-07-23T01:54:55;11.73;;;7.97;;
6135;SDS011;24008;42.664;23.372;2022-07-23T01:57:23;12.60;;;9.03;;
6135;SDS011;24008;42.664;23.372;2022-07-23T01:59:50;11.23;;;8.18;;
6135;SDS011;24008;42.664;23.372;2022-07-23T02:02:17;14.53;;;8.63;;
6135;SDS011;24008;42.664;23.372;2022-07-23T02:04:44;12.13;;;8.33;;
6135;SDS011;24008;42.664;23.372;2022-07-23T02:07:11;13.23;;;8.43;;
6135;SDS011;24008;42.664;23.372;2022-07-23T02:09:38;12.60;;;8.75;;
6135;SDS011;24008;42.664;23.372;2022-07-23T02:12:05;15.93;;;8.93;;
6135;SDS011;24008;42.664;23.372;2022-07-23T02:14:33;16.58;;;8.90;;
6135;SDS011;24008;42.664;23.372;2022-07-23T02:17:00;14.38;;;8.88;;
6135;SDS011;24008;42.664;23.372;2022-07-23T02:19:28;14.13;;;8.87;;
6135;SDS011;24008;42.664;23.372;2022-07-23T02:21:55;10.50;;;8.47;;
6135;SDS011;24008;42.664;23.372;2022-07-23T02:24:22;10.17;;;8.43;;
6135;SDS011;24008;42.664;23.372;2022-07-23T02:26:48;12.30;;;8.80;;
6135;SDS011;24008;42.664;23.372;2022-07-23T02:29:15;11.60;;;9.07;;
6135;SDS011;24008;42.664;23.372;2022-07-23T02:31:44;11.53;;;8.77;;
6135;SDS011;24008;42.664;23.372;2022-07-23T02:34:11;13.87;;;8.50;;
6135;SDS011;24008;42.664;23.372;2022-07-23T02:36:38;12.40;;;8.50;;
6135;SDS011;24008;42.664;23.372;2022-07-23T02:39:05;11.80;;;8.47;;
6135;SDS011;24008;42.664;23.372;2022-07-23T02:41:32;16.20;;;8.80;;
6135;SDS011;24008;42.664;23.372;2022-07-23T02:43:59;13.83;;;9.53;;
6135;SDS011;24008;42.664;23.372;2022-07-23T02:46:26;13.00;;;9.40;;
6135;SDS011;24008;42.664;23.372;2022-07-23T02:48:54;14.83;;;8.87;;
6135;SDS011;24008;42.664;23.372;2022-07-23T02:51:21;14.07;;;9.43;;
6135;SDS011;24008;42.664;23.372;2022-07-23T02:53:48;19.03;;;9.20;;
6135;SDS011;24008;42.664;23.372;2022-07-23T02:56:15;14.53;;;9.77;;
6135;SDS011;24008;42.664;23.372;2022-07-23T02:58:42;21.07;;;10.30;;
6135;SDS011;24008;42.664;23.372;2022-07-23T03:01:09;15.20;;;10.67;;
6135;SDS011;24008;42.664;23.372;2022-07-23T03:03:36;12.90;;;9.90;;
6135;SDS011;24008;42.664;23.372;2022-07-23T03:06:04;15.50;;;9.77;;
6135;SDS011;24008;42.664;23.372;2022-07-23T03:08:32;14.30;;;9.77;;
6135;SDS011;24008;42.664;23.372;2022-07-23T03:10:58;22.80;;;9.77;;
6135;SDS011;24008;42.664;23.372;2022-07-23T03:13:25;15.17;;;9.70;;
6135;SDS011;24008;42.664;23.372;2022-07-23T03:15:52;18.17;;;10.47;;
6135;SDS011;24008;42.664;23.372;2022-07-23T03:18:19;14.50;;;10.23;;
6135;SDS011;24008;42.664;23.372;2022-07-23T03:20:46;13.13;;;9.43;;
6135;SDS011;24008;42.664;23.372;2022-07-23T03:23:15;22.70;;;14.30;;
6135;SDS011;24008;42.664;23.372;2022-07-23T03:25:42;16.83;;;11.13;;
6135;SDS011;24008;42.664;23.372;2022-07-23T03:28:09;13.27;;;9.30;;
6135;SDS011;24008;42.664;23.372;2022-07-23T03:30:36;16.60;;;9.83;;
6135;SDS011;24008;42.664;23.372;2022-07-23T03:33:03;13.70;;;10.77;;
6135;SDS011;24008;42.664;23.372;2022-07-23T03:35:30;13.17;;;9.53;;
6135;SDS011;24008;42.664;23.372;2022-07-23T03:37:57;15.87;;;9.77;;
6135;SDS011;24008;42.664;23.372;2022-07-23T03:40:25;14.63;;;10.33;;
6135;SDS011;24008;42.664;23.372;2022-07-23T03:42:52;14.80;;;10.73;;
6135;SDS011;24008;42.664;23.372;2022-07-23T03:45:19;12.70;;;9.20;;
6135;SDS011;24008;42.664;23.372;2022-07-23T03:47:46;12.47;;;9.40;;
6135;SDS011;24008;42.664;23.372;2022-07-23T03:50:13;13.67;;;9.30;;
6135;SDS011;24008;42.664;23.372;2022-07-23T03:52:39;12.60;;;9.50;;
6135;SDS011;24008;42.664;23.372;2022-07-23T03:55:07;11.80;;;9.47;;
6135;SDS011;24008;42.664;23.372;2022-07-23T03:57:35;16.80;;;9.50;;
6135;SDS011;24008;42.664;23.372;2022-07-23T04:00:03;14.50;;;9.93;;
6135;SDS011;24008;42.664;23.372;2022-07-23T04:02:32;12.23;;;10.43;;
6135;SDS011;24008;42.664;23.372;2022-07-23T04:04:59;16.53;;;11.77;;
6135;SDS011;24008;42.664;23.372;2022-07-23T04:07:26;15.33;;;10.70;;
6135;SDS011;24008;42.664;23.372;2022-07-23T04:09:53;15.53;;;10.20;;
6135;SDS011;24008;42.664;23.372;2022-07-23T04:12:20;17.47;;;10.00;;
6135;SDS011;24008;42.664;23.372;2022-07-23T04:14:48;22.57;;;10.33;;
6135;SDS011;24008;42.664;23.372;2022-07-23T04:17:15;16.00;;;10.50;;
6135;SDS011;24008;42.664;23.372;2022-07-23T04:19:41;18.53;;;12.53;;
6135;SDS011;24008;42.664;23.372;2022-07-23T04:22:09;18.47;;;10.87;;
6135;SDS011;24008;42.664;23.372;2022-07-23T04:24:36;18.97;;;11.10;;
6135;SDS011;24008;42.664;23.372;2022-07-23T04:27:03;15.77;;;10.27;;
6135;SDS011;24008;42.664;23.372;2022-07-23T04:29:30;20.23;;;10.57;;
6135;SDS011;24008;42.664;23.372;2022-07-23T04:31:59;13.57;;;9.70;;
6135;SDS011;24008;42.664;23.372;2022-07-23T04:34:26;13.17;;;9.80;;
6135;SDS011;24008;42.664;23.372;2022-07-23T04:36:53;17.15;;;10.60;;
6135;SDS011;24008;42.664;23.372;2022-07-23T04:39:20;15.63;;;10.07;;
6135;SDS011;24008;42.664;23.372;2022-07-23T04:41:47;18.43;;;10.70;;
6135;SDS011;24008;42.664;23.372;2022-07-23T04:44:14;17.92;;;9.88;;
6135;SDS011;24008;42.664;23.372;2022-07-23T04:46:41;18.25;;;10.70;;
6135;SDS011;24008;42.664;23.372;2022-07-23T04:49:09;13.50;;;10.02;;
6135;SDS011;24008;42.664;23.372;2022-07-23T04:51:36;16.65;;;10.82;;
6135;SDS011;24008;42.664;23.372;2022-07-23T04:54:03;13.27;;;9.73;;
6135;SDS011;24008;42.664;23.372;2022-07-23T04:56:30;18.80;;;9.80;;
6135;SDS011;24008;42.664;23.372;2022-07-23T04:58:56;17.13;;;9.63;;
6135;SDS011;24008;42.664;23.372;2022-07-23T05:01:23;19.30;;;8.95;;
6135;SDS011;24008;42.664;23.372;2022-07-23T05:03:50;20.40;;;9.52;;
6135;SDS011;24008;42.664;23.372;2022-07-23T05:06:19;17.40;;;9.43;;
6135;SDS011;24008;42.664;23.372;2022-07-23T05:08:46;13.07;;;9.73;;
6135;SDS011;24008;42.664;23.372;2022-07-23T05:11:12;13.00;;;9.15;;
6135;SDS011;24008;42.664;23.372;2022-07-23T05:13:39;14.50;;;10.15;;
6135;SDS011;24008;42.664;23.372;2022-07-23T05:16:06;16.60;;;9.50;;
6135;SDS011;24008;42.664;23.372;2022-07-23T05:18:38;11.70;;;9.10;;
6135;SDS011;24008;42.664;23.372;2022-07-23T05:21:05;12.43;;;9.77;;
6135;SDS011;24008;42.664;23.372;2022-07-23T05:23:33;13.82;;;9.57;;
6135;SDS011;24008;42.664;23.372;2022-07-23T05:26:00;14.38;;;10.10;;
6135;SDS011;24008;42.664;23.372;2022-07-23T05:28:27;13.30;;;10.10;;
6135;SDS011;24008;42.664;23.372;2022-07-23T05:30:54;14.27;;;10.23;;
6135;SDS011;24008;42.664;23.372;2022-07-23T05:33:22;17.73;;;10.90;;
6135;SDS011;24008;42.664;23.372;2022-07-23T05:35:51;19.25;;;11.52;;
6135;SDS011;24008;42.664;23.372;2022-07-23T05:38:18;14.13;;;10.82;;
6135;SDS011;24008;42.664;23.372;2022-07-23T05:40:47;19.70;;;11.20;;
6135;SDS011;24008;42.664;23.372;2022-07-23T05:43:13;16.45;;;10.98;;
6135;SDS011;24008;42.664;23.372;2022-07-23T05:45:40;16.05;;;11.18;;
6135;SDS011;24008;42.664;23.372;2022-07-23T05:48:07;17.25;;;11.13;;
6135;SDS011;24008;42.664;23.372;2022-07-23T05:50:34;14.88;;;10.88;;
6135;SDS011;24008;42.664;23.372;2022-07-23T05:53:01;14.95;;;10.80;;
6135;SDS011;24008;42.664;23.372;2022-07-23T05:55:28;15.60;;;11.32;;
6135;SDS011;24008;42.664;23.372;2022-07-23T05:57:58;11.52;;;10.32;;
6135;SDS011;24008;42.664;23.372;2022-07-23T06:00:26;17.23;;;11.07;;
6135;SDS011;24008;42.664;23.372;2022-07-23T06:02:53;13.25;;;10.18;;
6135;SDS011;24008;42.664;23.372;2022-07-23T06:05:20;17.70;;;11.10;;
6135;SDS011;24008;42.664;23.372;2022-07-23T06:07:47;17.02;;;11.15;;
6135;SDS011;24008;42.664;23.372;2022-07-23T06:10:14;16.65;;;10.15;;
6135;SDS011;24008;42.664;23.372;2022-07-23T06:12:41;15.85;;;11.57;;
6135;SDS011;24008;42.664;23.372;2022-07-23T06:15:10;18.70;;;10.63;;
6135;SDS011;24008;42.664;23.372;2022-07-23T06:17:37;14.38;;;11.00;;
6135;SDS011;24008;42.664;23.372;2022-07-23T06:20:05;17.00;;;10.57;;
6135;SDS011;24008;42.664;23.372;2022-07-23T06:22:33;12.57;;;10.73;;
6135;SDS011;24008;42.664;23.372;2022-07-23T06:25:01;14.45;;;11.18;;
6135;SDS011;24008;42.664;23.372;2022-07-23T06:27:28;16.33;;;10.93;;
6135;SDS011;24008;42.664;23.372;2022-07-23T06:29:55;17.70;;;10.73;;
6135;SDS011;24008;42.664;23.372;2022-07-23T06:32:23;15.55;;;10.77;;
6135;SDS011;24008;42.664;23.372;2022-07-23T06:34:50;18.35;;;10.88;;
6135;SDS011;24008;42.664;23.372;2022-07-23T06:37:17;15.25;;;10.45;;
6135;SDS011;24008;42.664;23.372;2022-07-23T06:39:44;17.77;;;10.60;;
6135;SDS011;24008;42.664;23.372;2022-07-23T06:42:11;19.35;;;11.57;;
6135;SDS011;24008;42.664;23.372;2022-07-23T06:44:38;20.40;;;10.45;;
6135;SDS011;24008;42.664;23.372;2022-07-23T06:47:05;17.35;;;10.57;;
6135;SDS011;24008;42.664;23.372;2022-07-23T06:49:33;15.43;;;10.40;;
6135;SDS011;24008;42.664;23.372;2022-07-23T06:52:00;18.05;;;10.75;;
6135;SDS011;24008;42.664;23.372;2022-07-23T06:54:27;16.65;;;10.70;;
6135;SDS011;24008;42.664;23.372;2022-07-23T06:56:54;15.48;;;9.82;;
6135;SDS011;24008;42.664;23.372;2022-07-23T06:59:21;13.75;;;9.63;;
6135;SDS011;24008;42.664;23.372;2022-07-23T07:01:48;13.10;;;10.30;;
6135;SDS011;24008;42.664;23.372;2022-07-23T07:04:15;16.48;;;10.50;;
6135;SDS011;24008;42.664;23.372;2022-07-23T07:06:43;18.05;;;11.60;;
6135;SDS011;24008;42.664;23.372;2022-07-23T07:09:10;14.35;;;10.20;;
6135;SDS011;24008;42.664;23.372;2022-07-23T07:11:37;13.25;;;9.95;;
6135;SDS011;24008;42.664;23.372;2022-07-23T07:14:04;15.00;;;10.23;;
6135;SDS011;24008;42.664;23.372;2022-07-23T07:16:31;16.58;;;9.90;;
6135;SDS011;24008;42.664;23.372;2022-07-23T07:18:58;14.88;;;9.70;;
6135;SDS011;24008;42.664;23.372;2022-07-23T07:21:25;14.63;;;10.23;;
6135;SDS011;24008;42.664;23.372;2022-07-23T07:23:53;19.45;;;10.30;;
6135;SDS011;24008;42.664;23.372;2022-07-23T07:26:20;14.40;;;10.48;;
6135;SDS011;24008;42.664;23.372;2022-07-23T07:28:47;20.98;;;13.23;;
6135;SDS011;24008;42.664;23.372;2022-07-23T07:31:14;14.27;;;10.20;;
6135;SDS011;24008;42.664;23.372;2022-07-23T07:33:43;16.15;;;10.13;;
6135;SDS011;24008;42.664;23.372;2022-07-23T07:36:10;14.15;;;9.73;;
6135;SDS011;24008;42.664;23.372;2022-07-23T07:38:37;17.58;;;11.82;;
6135;SDS011;24008;42.664;23.372;2022-07-23T07:41:05;14.73;;;9.90;;
6135;SDS011;24008;42.664;23.372;2022-07-23T07:43:35;13.30;;;9.52;;
6135;SDS011;24008;42.664;23.372;2022-07-23T07:46:02;15.07;;;12.23;;
6135;SDS011;24008;42.664;23.372;2022-07-23T07:48:29;16.70;;;9.30;;
6135;SDS011;24008;42.664;23.372;2022-07-23T07:50:56;14.75;;;13.10;;
6135;SDS011;24008;42.664;23.372;2022-07-23T07:53:22;14.82;;;9.23;;
6135;SDS011;24008;42.664;23.372;2022-07-23T07:55:49;15.63;;;10.50;;
6135;SDS011;24008;42.664;23.372;2022-07-23T07:58:17;14.02;;;9.60;;
6135;SDS011;24008;42.664;23.372;2022-07-23T08:00:44;15.70;;;9.80;;
6135;SDS011;24008;42.664;23.372;2022-07-23T08:03:11;12.95;;;9.60;;
6135;SDS011;24008;42.664;23.372;2022-07-23T08:05:38;13.48;;;9.18;;
6135;SDS011;24008;42.664;23.372;2022-07-23T08:08:24;15.27;;;9.88;;
6135;SDS011;24008;42.664;23.372;2022-07-23T08:10:51;19.08;;;9.80;;
6135;SDS011;24008;42.664;23.372;2022-07-23T08:13:19;12.00;;;9.45;;
6135;SDS011;24008;42.664;23.372;2022-07-23T08:15:46;16.25;;;9.65;;
6135;SDS011;24008;42.664;23.372;2022-07-23T08:18:13;14.23;;;9.10;;
6135;SDS011;24008;42.664;23.372;2022-07-23T08:20:39;15.02;;;9.25;;
6135;SDS011;24008;42.664;23.372;2022-07-23T08:23:07;13.98;;;9.48;;
6135;SDS011;24008;42.664;23.372;2022-07-23T08:25:35;15.70;;;9.77;;
6135;SDS011;24008;42.664;23.372;2022-07-23T08:28:04;12.90;;;10.10;;
6135;SDS011;24008;42.664;23.372;2022-07-23T08:30:34;18.50;;;10.40;;
6135;SDS011;24008;42.664;23.372;2022-07-23T08:33:02;15.35;;;10.18;;
6135;SDS011;24008;42.664;23.372;2022-07-23T08:35:32;18.80;;;9.45;;
6135;SDS011;24008;42.664;23.372;2022-07-23T08:38:00;13.23;;;9.65;;
6135;SDS011;24008;42.664;23.372;2022-07-23T08:40:29;14.18;;;10.35;;
6135;SDS011;24008;42.664;23.372;2022-07-23T08:42:57;21.58;;;10.07;;
6135;SDS011;24008;42.664;23.372;2022-07-23T08:45:25;18.70;;;10.23;;
6135;SDS011;24008;42.664;23.372;2022-07-23T08:47:54;14.13;;;9.85;;
6135;SDS011;24008;42.664;23.372;2022-07-23T08:50:23;13.98;;;9.77;;
6135;SDS011;24008;42.664;23.372;2022-07-23T08:52:51;15.00;;;10.25;;
6135;SDS011;24008;42.664;23.372;2022-07-23T08:55:22;16.60;;;10.90;;
6135;SDS011;24008;42.664;23.372;2022-07-23T08:57:49;16.02;;;10.15;;
6135;SDS011;24008;42.664;23.372;2022-07-23T09:00:18;17.92;;;10.73;;
6135;SDS011;24008;42.664;23.372;2022-07-23T09:02:46;15.80;;;10.30;;
6135;SDS011;24008;42.664;23.372;2022-07-23T09:05:15;14.23;;;10.60;;
6135;SDS011;24008;42.664;23.372;2022-07-23T09:10:48;14.93;;;10.02;;
6135;SDS011;24008;42.664;23.372;2022-07-23T09:13:28;15.73;;;10.45;;
6135;SDS011;24008;42.664;23.372;2022-07-23T09:15:59;18.38;;;10.80;;
6135;SDS011;24008;42.664;23.372;2022-07-23T09:18:32;16.38;;;9.88;;
6135;SDS011;24008;42.664;23.372;2022-07-23T09:21:09;19.15;;;9.95;;
6135;SDS011;24008;42.664;23.372;2022-07-23T09:23:47;14.05;;;9.70;;
6135;SDS011;24008;42.664;23.372;2022-07-23T09:26:20;14.48;;;10.00;;
6135;SDS011;24008;42.664;23.372;2022-07-23T09:28:50;15.80;;;10.00;;
6135;SDS011;24008;42.664;23.372;2022-07-23T09:31:19;14.90;;;9.40;;
6135;SDS011;24008;42.664;23.372;2022-07-23T09:33:46;17.02;;;9.80;;
6135;SDS011;24008;42.664;23.372;2022-07-23T09:36:15;17.63;;;10.05;;
6135;SDS011;24008;42.664;23.372;2022-07-23T09:38:48;16.35;;;10.15;;
6135;SDS011;24008;42.664;23.372;2022-07-23T09:41:16;13.45;;;9.32;;
6135;SDS011;24008;42.664;23.372;2022-07-23T09:43:43;13.60;;;9.77;;
6135;SDS011;24008;42.664;23.372;2022-07-23T09:46:17;14.63;;;10.43;;
6135;SDS011;24008;42.664;23.372;2022-07-23T09:48:46;13.95;;;9.68;;
6135;SDS011;24008;42.664;23.372;2022-07-23T09:51:14;12.50;;;9.95;;
6135;SDS011;24008;42.664;23.372;2022-07-23T09:53:43;14.60;;;9.65;;
6135;SDS011;24008;42.664;23.372;2022-07-23T09:56:10;13.07;;;9.32;;
6135;SDS011;24008;42.664;23.372;2022-07-23T09:58:40;13.25;;;9.43;;
6135;SDS011;24008;42.664;23.372;2022-07-23T10:01:13;13.60;;;9.35;;
6135;SDS011;24008;42.664;23.372;2022-07-23T10:03:40;16.02;;;9.02;;
6135;SDS011;24008;42.664;23.372;2022-07-23T10:06:08;13.30;;;8.98;;
6135;SDS011;24008;42.664;23.372;2022-07-23T10:08:37;14.30;;;9.13;;
6135;SDS011;24008;42.664;23.372;2022-07-23T10:11:07;19.85;;;9.35;;
6135;SDS011;24008;42.664;23.372;2022-07-23T10:13:36;12.73;;;8.15;;
6135;SDS011;24008;42.664;23.372;2022-07-23T10:16:19;12.23;;;7.55;;
6135;SDS011;24008;42.664;23.372;2022-07-23T10:18:46;14.77;;;8.35;;
6135;SDS011;24008;42.664;23.372;2022-07-23T10:21:16;15.82;;;7.97;;
6135;SDS011;24008;42.664;23.372;2022-07-23T10:23:51;18.08;;;8.27;;
6135;SDS011;24008;42.664;23.372;2022-07-23T10:26:32;13.02;;;7.40;;
6135;SDS011;24008;42.664;23.372;2022-07-23T10:29:07;11.35;;;7.85;;
6135;SDS011;24008;42.664;23.372;2022-07-23T10:31:47;11.35;;;7.15;;
6135;SDS011;24008;42.664;23.372;2022-07-23T10:34:25;10.30;;;7.45;;
6135;SDS011;24008;42.664;23.372;2022-07-23T10:36:58;10.05;;;7.80;;
6135;SDS011;24008;42.664;23.372;2022-07-23T10:39:32;12.13;;;8.13;;
6135;SDS011;24008;42.664;23.372;2022-07-23T10:42:09;10.63;;;7.63;;
6135;SDS011;24008;42.664;23.372;2022-07-23T10:44:38;11.68;;;7.63;;
6135;SDS011;24008;42.664;23.372;2022-07-23T10:47:07;11.73;;;8.10;;
6135;SDS011;24008;42.664;23.372;2022-07-23T10:49:50;12.38;;;7.70;;
6135;SDS011;24008;42.664;23.372;2022-07-23T10:52:17;16.92;;;7.43;;
6135;SDS011;24008;42.664;23.372;2022-07-23T10:54:47;15.43;;;7.63;;
6135;SDS011;24008;42.664;23.372;2022-07-23T10:57:16;9.73;;;7.57;;
6135;SDS011;24008;42.664;23.372;2022-07-23T11:02:45;14.43;;;8.40;;
6135;SDS011;24008;42.664;23.372;2022-07-23T11:05:14;13.38;;;7.63;;
6135;SDS011;24008;42.664;23.372;2022-07-23T11:10:44;12.43;;;7.60;;
6135;SDS011;24008;42.664;23.372;2022-07-23T11:13:29;14.13;;;7.90;;
6135;SDS011;24008;42.664;23.372;2022-07-23T11:16:04;13.52;;;8.43;;
6135;SDS011;24008;42.664;23.372;2022-07-23T11:18:54;12.43;;;6.70;;
6135;SDS011;24008;42.664;23.372;2022-07-23T11:21:40;14.77;;;7.07;;
6135;SDS011;24008;42.664;23.372;2022-07-23T11:24:08;19.00;;;6.97;;
6135;SDS011;24008;42.664;23.372;2022-07-23T11:26:47;16.98;;;7.78;;
6135;SDS011;24008;42.664;23.372;2022-07-23T11:32:06;17.88;;;7.18;;
6135;SDS011;24008;42.664;23.372;2022-07-23T11:34:35;11.77;;;7.38;;
6135;SDS011;24008;42.664;23.372;2022-07-23T11:37:06;16.00;;;6.80;;
6135;SDS011;24008;42.664;23.372;2022-07-23T11:39:35;12.90;;;6.53;;
6135;SDS011;24008;42.664;23.372;2022-07-23T11:42:05;20.02;;;7.45;;
6135;SDS011;24008;42.664;23.372;2022-07-23T11:44:34;17.48;;;7.20;;
6135;SDS011;24008;42.664;23.372;2022-07-23T11:47:02;15.90;;;7.03;;
6135;SDS011;24008;42.664;23.372;2022-07-23T11:49:35;19.00;;;7.20;;
6135;SDS011;24008;42.664;23.372;2022-07-23T11:52:03;15.10;;;6.90;;
6135;SDS011;24008;42.664;23.372;2022-07-23T11:54:31;20.67;;;6.82;;
6135;SDS011;24008;42.664;23.372;2022-07-23T11:56:59;18.17;;;6.55;;
6135;SDS011;24008;42.664;23.372;2022-07-23T11:59:30;14.88;;;6.35;;
6135;SDS011;24008;42.664;23.372;2022-07-23T12:01:59;14.15;;;6.32;;
6135;SDS011;24008;42.664;23.372;2022-07-23T12:04:36;16.42;;;6.55;;
6135;SDS011;24008;42.664;23.372;2022-07-23T12:07:32;14.27;;;6.50;;
6135;SDS011;24008;42.664;23.372;2022-07-23T12:10:02;21.83;;;6.65;;
6135;SDS011;24008;42.664;23.372;2022-07-23T12:12:40;17.27;;;6.53;;
6135;SDS011;24008;42.664;23.372;2022-07-23T12:15:10;16.75;;;6.88;;
6135;SDS011;24008;42.664;23.372;2022-07-23T12:17:38;13.32;;;6.25;;
6135;SDS011;24008;42.664;23.372;2022-07-23T12:20:08;13.80;;;6.80;;
6135;SDS011;24008;42.664;23.372;2022-07-23T12:22:38;20.88;;;6.53;;
6135;SDS011;24008;42.664;23.372;2022-07-23T12:25:07;15.15;;;6.90;;
6135;SDS011;24008;42.664;23.372;2022-07-23T12:27:36;17.63;;;6.75;;
6135;SDS011;24008;42.664;23.372;2022-07-23T12:30:21;16.35;;;7.20;;
6135;SDS011;24008;42.664;23.372;2022-07-23T12:32:50;17.15;;;6.93;;
6135;SDS011;24008;42.664;23.372;2022-07-23T12:35:18;15.65;;;8.27;;
6135;SDS011;24008;42.664;23.372;2022-07-23T12:37:47;15.07;;;6.10;;
6135;SDS011;24008;42.664;23.372;2022-07-23T12:40:27;16.55;;;7.10;;
6135;SDS011;24008;42.664;23.372;2022-07-23T12:42:55;17.63;;;6.47;;
6135;SDS011;24008;42.664;23.372;2022-07-23T12:45:26;15.30;;;7.38;;
6135;SDS011;24008;42.664;23.372;2022-07-23T12:47:59;14.18;;;6.68;;
6135;SDS011;24008;42.664;23.372;2022-07-23T12:50:42;18.38;;;6.82;;
6135;SDS011;24008;42.664;23.372;2022-07-23T12:53:12;20.27;;;7.75;;
6135;SDS011;24008;42.664;23.372;2022-07-23T12:55:41;17.20;;;6.93;;
6135;SDS011;24008;42.664;23.372;2022-07-23T12:58:12;17.48;;;6.85;;
6135;SDS011;24008;42.664;23.372;2022-07-23T13:01:04;16.75;;;6.40;;
6135;SDS011;24008;42.664;23.372;2022-07-23T13:03:33;22.35;;;7.20;;
6135;SDS011;24008;42.664;23.372;2022-07-23T13:06:02;16.02;;;6.97;;
6135;SDS011;24008;42.664;23.372;2022-07-23T13:08:31;18.50;;;7.15;;
6135;SDS011;24008;42.664;23.372;2022-07-23T13:10:59;19.48;;;7.35;;
6135;SDS011;24008;42.664;23.372;2022-07-23T13:13:45;20.98;;;6.93;;
6135;SDS011;24008;42.664;23.372;2022-07-23T13:16:13;16.52;;;6.68;;
6135;SDS011;24008;42.664;23.372;2022-07-23T13:18:40;16.98;;;7.07;;
6135;SDS011;24008;42.664;23.372;2022-07-23T13:21:08;21.10;;;6.35;;
6135;SDS011;24008;42.664;23.372;2022-07-23T13:23:34;17.20;;;6.53;;
6135;SDS011;24008;42.664;23.372;2022-07-23T13:26:02;16.95;;;6.45;;
6135;SDS011;24008;42.664;23.372;2022-07-23T13:28:29;16.63;;;6.22;;
6135;SDS011;24008;42.664;23.372;2022-07-23T13:30:56;19.70;;;6.93;;
6135;SDS011;24008;42.664;23.372;2022-07-23T13:33:25;15.73;;;6.03;;
6135;SDS011;24008;42.664;23.372;2022-07-23T13:35:52;21.85;;;6.85;;
6135;SDS011;24008;42.664;23.372;2022-07-23T13:38:20;15.73;;;7.03;;
6135;SDS011;24008;42.664;23.372;2022-07-23T13:40:48;16.67;;;6.82;;
6135;SDS011;24008;42.664;23.372;2022-07-23T13:43:16;17.85;;;6.80;;
6135;SDS011;24008;42.664;23.372;2022-07-23T13:45:45;16.65;;;6.07;;
6135;SDS011;24008;42.664;23.372;2022-07-23T13:48:12;16.60;;;7.10;;
6135;SDS011;24008;42.664;23.372;2022-07-23T13:50:41;19.88;;;7.55;;
6135;SDS011;24008;42.664;23.372;2022-07-23T13:53:10;18.63;;;7.25;;
6135;SDS011;24008;42.664;23.372;2022-07-23T13:55:39;18.60;;;6.95;;
6135;SDS011;24008;42.664;23.372;2022-07-23T13:58:07;17.63;;;6.82;;
6135;SDS011;24008;42.664;23.372;2022-07-23T14:00:35;23.92;;;7.30;;
6135;SDS011;24008;42.664;23.372;2022-07-23T14:03:04;13.57;;;6.40;;
6135;SDS011;24008;42.664;23.372;2022-07-23T14:05:31;15.68;;;6.80;;
6135;SDS011;24008;42.664;23.372;2022-07-23T14:07:59;15.57;;;6.97;;
6135;SDS011;24008;42.664;23.372;2022-07-23T14:10:26;18.25;;;6.93;;
6135;SDS011;24008;42.664;23.372;2022-07-23T14:12:53;18.23;;;7.20;;
6135;SDS011;24008;42.664;23.372;2022-07-23T14:15:22;18.60;;;7.00;;
6135;SDS011;24008;42.664;23.372;2022-07-23T14:17:51;20.00;;;6.80;;
6135;SDS011;24008;42.664;23.372;2022-07-23T14:20:20;22.08;;;7.03;;
6135;SDS011;24008;42.664;23.372;2022-07-23T14:22:47;17.73;;;6.57;;
6135;SDS011;24008;42.664;23.372;2022-07-23T14:25:17;19.15;;;6.60;;
6135;SDS011;24008;42.664;23.372;2022-07-23T14:27:44;15.07;;;6.43;;
6135;SDS011;24008;42.664;23.372;2022-07-23T14:30:11;13.73;;;6.53;;
6135;SDS011;24008;42.664;23.372;2022-07-23T14:32:40;21.40;;;7.10;;
6135;SDS011;24008;42.664;23.372;2022-07-23T14:35:07;12.65;;;6.32;;
6135;SDS011;24008;42.664;23.372;2022-07-23T14:37:34;17.08;;;6.95;;
6135;SDS011;24008;42.664;23.372;2022-07-23T14:40:01;12.77;;;6.43;;
6135;SDS011;24008;42.664;23.372;2022-07-23T14:42:30;15.68;;;5.90;;
6135;SDS011;24008;42.664;23.372;2022-07-23T14:44:57;18.27;;;9.23;;
6135;SDS011;24008;42.664;23.372;2022-07-23T14:47:24;13.32;;;7.40;;
6135;SDS011;24008;42.664;23.372;2022-07-23T14:49:51;14.00;;;6.43;;
6135;SDS011;24008;42.664;23.372;2022-07-23T14:52:17;15.52;;;6.90;;